F/V Adeline Stephen — FGUF — position and weather

sailwx.info

Track history (hours):
 
Tides and Currents Weather Stations Pressure Air Temp Water Temp Dewpoint Dewpoint Depression Visibility Wind Speed Wind Dir Waves Ship Positions

F/V Adeline Stephen

Last reported at 2017-Mar-21 13:23 UTC. Time now 2017-Mar-23 04:26 UTC.
Position N 47°33' W 003°45'.

Length 18 m.

Type: Fishing. MMSI: 228929000.

Date/timePositionNaut miles runAvg speedWind from/ knotsBaromVisibWave heightAir tempDewpointWater temp
2017-Mar-21 13:23N 47°33' W 003°45'7 8.2
2017-Mar-21 12:33N 47°37' W 003°37'8 8.0
2017-Mar-21 11:33N 47°41' W 003°26'  
2017-Mar-18 02:33N 47°44' W 003°22'0 0.1
2017-Mar-18 01:33N 47°44' W 003°22'0 0.0
2017-Mar-18 00:33N 47°44' W 003°22'0 0.0
2017-Mar-17 23:33N 47°44' W 003°22'2 1.6
2017-Mar-17 22:33N 47°42' W 003°22'8 8.2
2017-Mar-17 21:33N 47°34' W 003°21'  
2017-Mar-12 22:32N 47°03' W 002°50'8 8.5
2017-Mar-12 21:32N 47°10' W 002°56'9 8.8
2017-Mar-12 20:32N 47°18' W 003°01'8 8.5
2017-Mar-12 19:33N 47°25' W 003°08'8 8.0
2017-Mar-12 18:33N 47°32' W 003°14'9 8.9
2017-Mar-12 17:33N 47°39' W 003°21'4 4.4
2017-Mar-12 16:33N 47°44' W 003°22'0 0.1
2017-Mar-12 15:33N 47°44' W 003°22'0 0.0
2017-Mar-12 14:33N 47°44' W 003°22'0 0.5
2017-Mar-12 13:33N 47°43' W 003°22'9 8.8
2017-Mar-12 12:33N 47°40' W 003°34'  
Track history (hours):
 
Tides and Currents Weather Stations Pressure Air Temp Water Temp Dewpoint Dewpoint Depression Visibility Wind Speed Wind Dir Waves Ship Positions

F/V Adeline Stephen

Last reported at 2017-Mar-21 13:23 UTC. Time now 2017-Mar-23 04:26 UTC.
Position N 47°33' W 003°45'.

Length 18 m.

Type: Fishing. MMSI: 228929000.

Date/timePositionNaut miles runAvg speedWind from/ knotsBaromVisibWave heightAir tempDewpointWater temp
2017-Mar-21 13:23N 47°33' W 003°45'7 8.2
2017-Mar-21 12:33N 47°37' W 003°37'8 8.0
2017-Mar-21 11:33N 47°41' W 003°26'  
2017-Mar-18 02:33N 47°44' W 003°22'0 0.1
2017-Mar-18 01:33N 47°44' W 003°22'0 0.0
2017-Mar-18 00:33N 47°44' W 003°22'0 0.0
2017-Mar-17 23:33N 47°44' W 003°22'2 1.6
2017-Mar-17 22:33N 47°42' W 003°22'8 8.2
2017-Mar-17 21:33N 47°34' W 003°21'  
2017-Mar-12 22:32N 47°03' W 002°50'8 8.5
2017-Mar-12 21:32N 47°10' W 002°56'9 8.8
2017-Mar-12 20:32N 47°18' W 003°01'8 8.5
2017-Mar-12 19:33N 47°25' W 003°08'8 8.0
2017-Mar-12 18:33N 47°32' W 003°14'9 8.9
2017-Mar-12 17:33N 47°39' W 003°21'4 4.4
2017-Mar-12 16:33N 47°44' W 003°22'0 0.1
2017-Mar-12 15:33N 47°44' W 003°22'0 0.0
2017-Mar-12 14:33N 47°44' W 003°22'0 0.5
2017-Mar-12 13:33N 47°43' W 003°22'9 8.8
2017-Mar-12 12:33N 47°40' W 003°34'  

Dump ship's entire track history